KOCW/OCW METAR and TAF weather

Enter ICAO airport designator
Station Type Date Time Source
KOCW METAR 2020/01/27 13:55 UTC NOAA

KOCW 271355Z AUTO 00000KT 10SM CLR 05/02 A2994 RMK AO2 T00500018


Station Type Date Time Source
KOCW Decoded METAR 2020/01/27 13:55 UTC NOAA

Washington, Warren Field Airport, NC, United States (KOCW) 35-34-14N 077-02-59W
Jan 27, 2020 - 08:55 AM EST / 2020.01.27 1355 UTC
Wind: Calm:0
Visibility: 10 mile(s):0
Sky conditions: clear
Temperature: 41.0 F (5.0 C)
Dew Point: 35.2 F (1.8 C)
Relative Humidity: 79%
Pressure (altimeter): 29.94 in. Hg (1013 hPa)
ob: KOCW 271355Z AUTO 00000KT 10SM CLR 05/02 A2994 RMK AO2 T00500018
cycle: 14

Station Type Date Time Source
KOCW TAF UTC NOAA

Error!

Example: see airport list